Overview Statistics Trail Chart Weather Telemetry Raw packets
 

This is the latest recevied weather packets stored in our database for station/object W0AKY-13. If no packets are shown the sender has not sent any weather packets the latest 10 day(s).

<< 24 25 26 27 28 29 30 >>
Time Temp. Humidity Pressure Rain* Wind** Luminosity Snow
1788444685 27.22° C 71% 1013 hPa 0 mm - 54 W/m² -
1788444381 26.67° C 72% 1013.1 hPa 0 mm - 48 W/m² -
1788444092 26.67° C 73% 1013.2 hPa 0 mm - 44 W/m² -
1788443773 26.11° C 74% 1013 hPa 0 mm - 39 W/m² -
1788443472 25.56° C 75% 1013.1 hPa 0 mm - 35 W/m² -
1788443171 25.56° C 75% 1013.1 hPa 0 mm - 31 W/m² -
1788442867 25.56° C 76% 1013.2 hPa 0 mm - 25 W/m² -
1788442576 25.56° C 75% 1013.1 hPa 0 mm - 21 W/m² -
1788442261 25.56° C 75% 1013.1 hPa 0 mm - 18 W/m² -
1788441955 25.56° C 74% 1013.2 hPa 0 mm - 17 W/m² -
1788441650 25.56° C 74% 1012.9 hPa 0 mm - 19 W/m² -
1788441350 26.11° C 73% 1013.2 hPa 0 mm - 21 W/m² -
1788441057 26.11° C 72% 1013.1 hPa 0 mm - 21 W/m² -
1788440750 26.11° C 73% 1013.2 hPa 0 mm - 17 W/m² -
1788440445 26.67° C 70% 1013.1 hPa 0 mm - 14 W/m² -
1788440143 26.67° C 69% 1012.9 hPa 0 mm - 10 W/m² -
1788439838 26.67° C 69% 1012.9 hPa 0 mm - 10 W/m² -
1788439533 26.67° C 69% 1012.9 hPa 0 mm - 10 W/m² -
1788439233 26.67° C 70% 1012.8 hPa 0 mm - 10 W/m² -
1788438932 26.67° C 69% 1012.8 hPa 0 mm - 9 W/m² -
1788438631 27.22° C 67% 1012.8 hPa 0 mm - 5 W/m² -
1788438331 27.22° C 66% 1012.7 hPa 0 mm - 3 W/m² -
1788438031 27.22° C 66% 1012.7 hPa 0 mm - 2 W/m² -
1788437725 26.67° C 69% 1012.8 hPa 0 mm - 2 W/m² -
1788437421 26.67° C 69% 1012.7 hPa 0 mm - 1 W/m² -

* Rain latest hour (hover to see other rain measurements)
** Current wind speed in m/s (hover to see current wind gust speed)